Vestborg — E5U2070 — position and weather

sailwx.info

Track history (hours):
 
Tides and Currents Weather Stations Pressure Air Temp Water Temp Dewpoint Dewpoint Depression Visibility Wind Speed Wind Dir Waves Ship Positions

Vestborg

Last reported at 2016-May-30 20:28 UTC. Time now 2016-May-31 10:07 UTC.
Position N 69°18' E 017°58'.

Length 66 m; draft 5.2 m.

Type: Cargo ship. MMSI: 518120000.

Date/timePositionNaut miles runAvg speedWind from/ knotsBaromVisibWave heightAir tempDewpointWater temp
2016-May-30 20:28N 69°18' E 017°58'6 6.9
2016-May-30 19:33N 69°11' E 018°01'8 8.0
2016-May-30 18:33N 69°08' E 017°41'3 0.1
2016-May-29 00:33N 69°06' E 017°32'8 8.4
2016-May-28 23:33N 69°09' E 017°54'7 6.5
2016-May-28 22:33N 69°16' E 017°58'  
2016-May-26 15:34N 69°15' E 017°58'7 6.8
2016-May-26 14:34N 69°09' E 017°49'115 3.5
2016-May-25 05:28N 67°40' E 014°30'9 9.8
2016-May-25 04:33N 67°31' E 014°29'9 9.5
2016-May-25 03:33N 67°22' E 014°24'5 5.2
2016-May-25 02:31N 67°16' E 014°21'0 0.0
2016-May-25 01:31N 67°16' E 014°21'0 0.0
2016-May-25 00:31N 67°16' E 014°21'0 0.0
2016-May-24 23:31N 67°16' E 014°21'0 0.0
2016-May-24 22:31N 67°16' E 014°21'0 0.0
2016-May-24 21:33N 67°16' E 014°21'0 0.0
2016-May-24 20:33N 67°16' E 014°21'6 5.8
2016-May-24 19:34N 67°13' E 014°09'9 8.9
2016-May-24 18:33N 67°05' E 013°56'9 8.9
2016-May-24 17:33N 66°60' E 013°38'8 7.8
2016-May-24 16:33N 66°54' E 013°26'10 8.4
2016-May-24 15:21N 66°45' E 013°12'11 8.5
2016-May-24 14:06N 66°39' E 012°50'6 9.1
2016-May-24 13:26N 66°34' E 012°44'8 8.7
2016-May-24 12:33N 66°27' E 012°35'7 6.9
2016-May-24 11:34N 66°22' E 012°22'0 0.0
2016-May-24 10:33N 66°22' E 012°22'0 0.0
2016-May-24 09:33N 66°22' E 012°22'0 0.0
2016-May-24 08:33N 66°22' E 012°22'0 0.0
2016-May-24 07:33N 66°22' E 012°22'3 2.6
2016-May-24 06:33N 66°20' E 012°23'7 6.7
2016-May-24 05:33N 66°14' E 012°33'16 7.8
2016-May-24 03:33N 65°59' E 012°28'41 8.1
2016-May-23 22:33N 65°20' E 012°01'9 8.6
2016-May-23 21:33N 65°12' E 011°53'8 8.5
2016-May-23 20:34N 65°04' E 011°45'9 8.5
2016-May-23 19:33N 64°58' E 011°32'9 8.7
2016-May-23 18:33N 64°52' E 011°17'22 1.1
2016-May-22 23:15N 64°30' E 011°17'9 7.9
2016-May-22 22:07N 64°36' E 011°01'5 8.8
2016-May-22 21:32N 64°39' E 010°52'7 7.6
2016-May-22 20:33N 64°45' E 011°00'8 8.6
2016-May-22 19:34N 64°51' E 011°14'1 1.0
2016-May-22 18:33N 64°51' E 011°17'0 0.1
2016-May-22 17:31N 64°52' E 011°17'0 0.0
2016-May-22 16:31N 64°52' E 011°17'0 0.0
2016-May-22 15:31N 64°52' E 011°17'0 0.0
2016-May-22 14:34N 64°52' E 011°17'7 7.2
2016-May-22 13:33N 64°47' E 011°04'78 9.4
2016-May-22 05:14N 63°44' E 009°17'710.4
2016-May-22 04:33N 63°37' E 009°16'8 8.5
2016-May-22 03:33N 63°30' E 009°05'134 8.9
2016-May-21 12:30N 62°12' E 005°05'9 9.0
2016-May-21 11:34N 62°03' E 005°08'7 7.3
2016-May-21 10:32N 61°56' E 005°08'1 0.7
2016-May-21 09:34N 61°55' E 005°07'7 6.2
2016-May-21 08:29N 61°49' E 005°10'  
Track history (hours):
 
Tides and Currents Weather Stations Pressure Air Temp Water Temp Dewpoint Dewpoint Depression Visibility Wind Speed Wind Dir Waves Ship Positions

Vestborg

Last reported at 2016-May-30 20:28 UTC. Time now 2016-May-31 10:07 UTC.
Position N 69°18' E 017°58'.

Length 66 m; draft 5.2 m.

Type: Cargo ship. MMSI: 518120000.

Date/timePositionNaut miles runAvg speedWind from/ knotsBaromVisibWave heightAir tempDewpointWater temp
2016-May-30 20:28N 69°18' E 017°58'6 6.9
2016-May-30 19:33N 69°11' E 018°01'8 8.0
2016-May-30 18:33N 69°08' E 017°41'3 0.1
2016-May-29 00:33N 69°06' E 017°32'8 8.4
2016-May-28 23:33N 69°09' E 017°54'7 6.5
2016-May-28 22:33N 69°16' E 017°58'  
2016-May-26 15:34N 69°15' E 017°58'7 6.8
2016-May-26 14:34N 69°09' E 017°49'115 3.5
2016-May-25 05:28N 67°40' E 014°30'9 9.8
2016-May-25 04:33N 67°31' E 014°29'9 9.5
2016-May-25 03:33N 67°22' E 014°24'5 5.2
2016-May-25 02:31N 67°16' E 014°21'0 0.0
2016-May-25 01:31N 67°16' E 014°21'0 0.0
2016-May-25 00:31N 67°16' E 014°21'0 0.0
2016-May-24 23:31N 67°16' E 014°21'0 0.0
2016-May-24 22:31N 67°16' E 014°21'0 0.0
2016-May-24 21:33N 67°16' E 014°21'0 0.0
2016-May-24 20:33N 67°16' E 014°21'6 5.8
2016-May-24 19:34N 67°13' E 014°09'9 8.9
2016-May-24 18:33N 67°05' E 013°56'9 8.9
2016-May-24 17:33N 66°60' E 013°38'8 7.8
2016-May-24 16:33N 66°54' E 013°26'10 8.4
2016-May-24 15:21N 66°45' E 013°12'11 8.5
2016-May-24 14:06N 66°39' E 012°50'6 9.1
2016-May-24 13:26N 66°34' E 012°44'8 8.7
2016-May-24 12:33N 66°27' E 012°35'7 6.9
2016-May-24 11:34N 66°22' E 012°22'0 0.0
2016-May-24 10:33N 66°22' E 012°22'0 0.0
2016-May-24 09:33N 66°22' E 012°22'0 0.0
2016-May-24 08:33N 66°22' E 012°22'0 0.0
2016-May-24 07:33N 66°22' E 012°22'3 2.6
2016-May-24 06:33N 66°20' E 012°23'7 6.7
2016-May-24 05:33N 66°14' E 012°33'16 7.8
2016-May-24 03:33N 65°59' E 012°28'41 8.1
2016-May-23 22:33N 65°20' E 012°01'9 8.6
2016-May-23 21:33N 65°12' E 011°53'8 8.5
2016-May-23 20:34N 65°04' E 011°45'9 8.5
2016-May-23 19:33N 64°58' E 011°32'9 8.7
2016-May-23 18:33N 64°52' E 011°17'22 1.1
2016-May-22 23:15N 64°30' E 011°17'9 7.9
2016-May-22 22:07N 64°36' E 011°01'5 8.8
2016-May-22 21:32N 64°39' E 010°52'7 7.6
2016-May-22 20:33N 64°45' E 011°00'8 8.6
2016-May-22 19:34N 64°51' E 011°14'1 1.0
2016-May-22 18:33N 64°51' E 011°17'0 0.1
2016-May-22 17:31N 64°52' E 011°17'0 0.0
2016-May-22 16:31N 64°52' E 011°17'0 0.0
2016-May-22 15:31N 64°52' E 011°17'0 0.0
2016-May-22 14:34N 64°52' E 011°17'7 7.2
2016-May-22 13:33N 64°47' E 011°04'78 9.4
2016-May-22 05:14N 63°44' E 009°17'710.4
2016-May-22 04:33N 63°37' E 009°16'8 8.5
2016-May-22 03:33N 63°30' E 009°05'134 8.9
2016-May-21 12:30N 62°12' E 005°05'9 9.0
2016-May-21 11:34N 62°03' E 005°08'7 7.3
2016-May-21 10:32N 61°56' E 005°08'1 0.7
2016-May-21 09:34N 61°55' E 005°07'7 6.2
2016-May-21 08:29N 61°49' E 005°10'  

Dump ship's entire track history